createdAt,value
2017-08-23T00:00:35.008Z,858.86
2017-08-23T00:01:34.906Z,858.82
2017-08-23T00:02:34.891Z,858.82
2017-08-23T00:03:34.882Z,858.80
2017-08-23T00:04:34.879Z,858.78
2017-08-23T00:05:34.871Z,858.79
2017-08-23T00:06:34.964Z,858.78
2017-08-23T00:07:34.849Z,858.80
2017-08-23T00:08:34.840Z,858.78
2017-08-23T00:09:34.843Z,858.80
2017-08-23T00:10:34.823Z,858.84
2017-08-23T00:11:34.817Z,858.83
2017-08-23T00:12:34.907Z,858.83
2017-08-23T00:13:34.805Z,858.81
2017-08-23T00:14:34.791Z,858.86
2017-08-23T00:15:34.788Z,858.81
2017-08-23T00:16:34.772Z,858.81
2017-08-23T00:17:34.769Z,858.80
2017-08-23T00:18:34.855Z,858.79
2017-08-23T00:19:34.753Z,858.78
2017-08-23T00:20:34.739Z,858.79
2017-08-23T00:21:34.731Z,858.78
2017-08-23T00:22:34.721Z,858.77
2017-08-23T00:23:34.713Z,858.80
2017-08-23T00:24:34.804Z,858.78
2017-08-23T00:25:34.702Z,858.77
2017-08-23T00:26:34.687Z,858.81
2017-08-23T00:27:34.679Z,858.76
2017-08-23T00:28:34.671Z,858.78
2017-08-23T00:29:34.668Z,858.76
2017-08-23T00:30:34.759Z,858.77
2017-08-23T00:31:34.644Z,858.73
2017-08-23T00:32:34.645Z,858.73
2017-08-23T00:33:34.632Z,858.71
2017-08-23T00:34:34.624Z,858.70
2017-08-23T00:35:34.610Z,858.68
2017-08-23T00:36:34.701Z,858.68
2017-08-23T00:37:34.594Z,858.68
2017-08-23T00:38:34.585Z,858.71
2017-08-23T00:39:34.582Z,858.68
2017-08-23T00:40:34.566Z,858.68
2017-08-23T00:41:34.559Z,858.69
2017-08-23T00:42:34.551Z,858.66
2017-08-23T00:43:34.546Z,858.64
2017-08-23T00:44:34.632Z,858.66
2017-08-23T00:45:34.625Z,858.65
2017-08-23T00:46:34.521Z,858.69
2017-08-23T00:47:34.512Z,858.69
2017-08-23T00:48:34.498Z,858.69
2017-08-23T00:49:34.495Z,858.70
2017-08-23T00:50:34.482Z,858.66
2017-08-23T00:51:34.574Z,858.70
2017-08-23T00:52:34.468Z,858.69
2017-08-23T00:53:34.454Z,858.70
2017-08-23T00:54:34.446Z,858.77
2017-08-23T00:55:34.438Z,858.73
2017-08-23T00:56:34.429Z,858.69
2017-08-23T00:57:34.522Z,858.73
2017-08-23T00:58:34.412Z,858.75
2017-08-23T00:59:34.403Z,858.72
2017-08-23T01:00:34.393Z,858.76
2017-08-23T01:01:34.387Z,858.70
2017-08-23T01:02:34.377Z,858.72
2017-08-23T01:03:34.471Z,858.69
2017-08-23T01:04:34.360Z,858.69
2017-08-23T01:05:34.351Z,858.69
2017-08-23T01:06:34.345Z,858.70
2017-08-23T01:07:34.334Z,858.68
2017-08-23T01:08:34.324Z,858.67
2017-08-23T01:09:34.316Z,858.67
2017-08-23T01:10:34.310Z,858.68
2017-08-23T01:11:34.300Z,858.66
2017-08-23T01:12:34.291Z,858.62
2017-08-23T01:13:34.284Z,858.64
2017-08-23T01:14:34.279Z,858.60
2017-08-23T01:15:34.365Z,858.63
2017-08-23T01:16:34.256Z,858.60
2017-08-23T01:17:34.247Z,858.59
2017-08-23T01:18:34.239Z,858.56
2017-08-23T01:19:34.237Z,858.58
2017-08-23T01:20:34.222Z,858.56
2017-08-23T01:21:34.312Z,858.56
2017-08-23T01:22:34.204Z,858.52
2017-08-23T01:23:34.195Z,858.54
2017-08-23T01:24:34.186Z,858.52
2017-08-23T01:25:34.184Z,858.51
2017-08-23T01:26:34.175Z,858.51
2017-08-23T01:27:34.262Z,858.52
2017-08-23T01:28:34.152Z,858.48
2017-08-23T01:29:34.142Z,858.53
2017-08-23T01:30:34.135Z,858.51
2017-08-23T01:31:34.128Z,858.50
2017-08-23T01:32:34.116Z,858.53
2017-08-23T01:33:34.208Z,858.55
2017-08-23T01:34:34.119Z,858.55
2017-08-23T01:35:34.091Z,858.53
2017-08-23T01:36:34.082Z,858.57
2017-08-23T01:37:34.073Z,858.56
2017-08-23T01:38:34.065Z,858.59
2017-08-23T01:39:34.156Z,858.57
2017-08-23T01:40:34.047Z,858.54
2017-08-23T01:41:34.038Z,858.57
2017-08-23T01:42:34.029Z,858.53
2017-08-23T01:43:34.022Z,858.58
2017-08-23T01:44:34.017Z,858.55
2017-08-23T01:45:34.103Z,858.54
2017-08-23T01:46:33.999Z,858.59
2017-08-23T01:47:33.985Z,858.58
2017-08-23T01:48:33.981Z,858.63
2017-08-23T01:49:33.970Z,858.56
2017-08-23T01:50:33.959Z,858.58
2017-08-23T01:51:34.053Z,858.57
2017-08-23T01:52:33.939Z,858.53
2017-08-23T01:53:33.931Z,858.54
2017-08-23T01:54:33.921Z,858.55
2017-08-23T01:55:33.913Z,858.53
2017-08-23T01:56:33.907Z,858.49
2017-08-23T01:57:33.994Z,858.54
2017-08-23T01:58:33.885Z,858.50
2017-08-23T01:59:33.876Z,858.50
2017-08-23T02:00:33.866Z,858.49
2017-08-23T02:01:33.857Z,858.49
2017-08-23T02:02:33.850Z,858.53
2017-08-23T02:03:33.947Z,858.53
2017-08-23T02:04:33.834Z,858.56
2017-08-23T02:05:33.822Z,858.52
2017-08-23T02:06:33.812Z,858.54
2017-08-23T02:07:33.809Z,858.56
2017-08-23T02:08:33.794Z,858.57
2017-08-23T02:09:33.884Z,858.58
2017-08-23T02:10:33.776Z,858.57
2017-08-23T02:11:33.767Z,858.53
2017-08-23T02:12:33.762Z,858.59
2017-08-23T02:13:33.748Z,858.57
2017-08-23T02:14:33.740Z,858.56
2017-08-23T02:15:33.836Z,858.55
2017-08-23T02:16:33.726Z,858.54
2017-08-23T02:17:33.712Z,858.55
2017-08-23T02:18:33.709Z,858.54
2017-08-23T02:19:33.694Z,858.58
2017-08-23T02:20:33.686Z,858.56
2017-08-23T02:21:33.782Z,858.59
2017-08-23T02:22:33.673Z,858.57
2017-08-23T02:23:33.658Z,858.59
2017-08-23T02:24:33.647Z,858.59
2017-08-23T02:25:33.640Z,858.57
2017-08-23T02:26:33.636Z,858.55
2017-08-23T02:27:33.728Z,858.58
2017-08-23T02:28:33.611Z,858.60
2017-08-23T02:29:33.602Z,858.59
2017-08-23T02:30:33.593Z,858.61
2017-08-23T02:31:33.590Z,858.57
2017-08-23T02:32:33.575Z,858.59
2017-08-23T02:33:33.665Z,858.62
2017-08-23T02:34:33.557Z,858.66
2017-08-23T02:35:33.547Z,858.62
2017-08-23T02:36:33.537Z,858.60
2017-08-23T02:37:33.535Z,858.62
2017-08-23T02:38:33.521Z,858.56
2017-08-23T02:39:33.615Z,858.53
2017-08-23T02:40:33.508Z,858.51
2017-08-23T02:41:33.493Z,858.53
2017-08-23T02:42:33.489Z,858.53
2017-08-23T02:43:33.474Z,858.54
2017-08-23T02:44:33.464Z,858.53
2017-08-23T02:45:33.555Z,858.52
2017-08-23T02:46:33.446Z,858.54
2017-08-23T02:47:33.437Z,858.53
2017-08-23T02:48:33.428Z,858.57
2017-08-23T02:49:33.418Z,858.54
2017-08-23T02:50:33.409Z,858.48
2017-08-23T02:51:33.400Z,858.54
2017-08-23T02:52:33.391Z,858.52
2017-08-23T02:53:33.487Z,858.52
2017-08-23T02:54:33.377Z,858.50
2017-08-23T02:55:33.366Z,858.49
2017-08-23T02:56:33.353Z,858.52
2017-08-23T02:57:33.344Z,858.47
2017-08-23T02:58:33.335Z,858.47
2017-08-23T02:59:33.327Z,858.45
2017-08-23T03:00:33.316Z,858.45
2017-08-23T03:01:33.313Z,858.46
2017-08-23T03:02:33.300Z,858.43
2017-08-23T03:03:33.290Z,858.46
2017-08-23T03:04:33.385Z,858.39
2017-08-23T03:05:33.269Z,858.42
2017-08-23T03:06:33.262Z,858.38
2017-08-23T03:07:33.258Z,858.43
2017-08-23T03:08:33.248Z,858.41
2017-08-23T03:09:33.236Z,858.43
2017-08-23T03:10:33.225Z,858.42
2017-08-23T03:11:33.221Z,858.45
2017-08-23T03:12:33.205Z,858.44
2017-08-23T03:13:33.196Z,858.50
2017-08-23T03:14:33.292Z,858.46
2017-08-23T03:15:33.183Z,858.47
2017-08-23T03:16:33.169Z,858.50
2017-08-23T03:17:33.158Z,858.49
2017-08-23T03:18:33.150Z,858.52
2017-08-23T03:19:33.147Z,858.52
2017-08-23T03:20:33.236Z,858.52
2017-08-23T03:21:33.121Z,858.51
2017-08-23T03:22:33.113Z,858.49
2017-08-23T03:23:33.104Z,858.47
2017-08-23T03:24:33.100Z,858.46
2017-08-23T03:25:33.090Z,858.44
2017-08-23T03:26:33.176Z,858.44
2017-08-23T03:27:33.066Z,858.44
2017-08-23T03:28:33.055Z,858.43
2017-08-23T03:29:33.051Z,858.48
2017-08-23T03:30:33.044Z,858.49
2017-08-23T03:31:33.028Z,858.49
2017-08-23T03:32:33.017Z,858.44
2017-08-23T03:33:33.119Z,858.46
2017-08-23T03:34:33.105Z,858.48
2017-08-23T03:35:32.990Z,858.50
2017-08-23T03:36:32.985Z,858.48
2017-08-23T03:37:32.970Z,858.51
2017-08-23T03:38:32.961Z,858.48
2017-08-23T03:39:32.955Z,858.51
2017-08-23T03:40:33.041Z,858.46
2017-08-23T03:41:32.932Z,858.48
2017-08-23T03:42:32.928Z,858.48
2017-08-23T03:43:32.920Z,858.46
2017-08-23T03:44:32.903Z,858.43
2017-08-23T03:45:32.894Z,858.46
2017-08-23T03:46:32.984Z,858.43
2017-08-23T03:47:32.875Z,858.45
2017-08-23T03:48:33.116Z,858.40
2017-08-23T03:49:32.862Z,858.41
2017-08-23T03:50:32.852Z,858.50
2017-08-23T03:51:32.838Z,858.48
2017-08-23T03:52:32.933Z,858.48
2017-08-23T03:53:32.817Z,858.47
2017-08-23T03:54:32.811Z,858.46
2017-08-23T03:55:32.799Z,858.48
2017-08-23T03:56:32.789Z,858.45
2017-08-23T03:57:32.784Z,858.49
2017-08-23T03:58:32.871Z,858.50
2017-08-23T03:59:32.762Z,858.50
2017-08-23T04:00:32.751Z,858.54
2017-08-23T04:01:32.747Z,858.53
2017-08-23T04:02:32.731Z,858.51
2017-08-23T04:03:32.870Z,858.52
2017-08-23T04:04:32.818Z,858.49
2017-08-23T04:05:32.803Z,858.54
2017-08-23T04:06:32.693Z,858.53
2017-08-23T04:07:32.689Z,858.58
2017-08-23T04:08:32.679Z,858.61
2017-08-23T04:09:32.664Z,858.60
2017-08-23T04:10:32.756Z,858.59
2017-08-23T04:11:32.662Z,858.59
2017-08-23T04:12:32.636Z,858.57
2017-08-23T04:13:32.626Z,858.58
2017-08-23T04:14:32.616Z,858.55
2017-08-23T04:15:32.608Z,858.59
2017-08-23T04:16:32.697Z,858.61
2017-08-23T04:17:32.588Z,858.57
2017-08-23T04:18:32.579Z,858.60
2017-08-23T04:19:32.569Z,858.58
2017-08-23T04:20:32.559Z,858.63
2017-08-23T04:21:32.654Z,858.62
2017-08-23T04:22:32.645Z,858.64
2017-08-23T04:23:32.530Z,858.64
2017-08-23T04:24:32.519Z,858.66
2017-08-23T04:25:32.510Z,858.65
2017-08-23T04:26:32.507Z,858.64
2017-08-23T04:27:32.491Z,858.66
2017-08-23T04:28:32.581Z,858.67
2017-08-23T04:29:32.723Z,858.68
2017-08-23T04:30:32.462Z,858.71
2017-08-23T04:31:32.453Z,858.71
2017-08-23T04:32:32.443Z,858.72
2017-08-23T04:33:32.433Z,858.70
2017-08-23T04:34:32.524Z,858.70
2017-08-23T04:35:32.416Z,858.73
2017-08-23T04:36:32.404Z,858.74
2017-08-23T04:37:32.396Z,858.72
2017-08-23T04:38:32.386Z,858.69
2017-08-23T04:39:32.377Z,858.69
2017-08-23T04:40:32.473Z,858.73
2017-08-23T04:41:32.362Z,858.71
2017-08-23T04:42:32.347Z,858.75
2017-08-23T04:43:32.343Z,858.72
2017-08-23T04:44:32.327Z,858.70
2017-08-23T04:45:32.352Z,858.70
2017-08-23T04:46:32.415Z,858.73
2017-08-23T04:47:32.605Z,858.73
2017-08-23T04:48:32.288Z,858.70
2017-08-23T04:49:32.279Z,858.67
2017-08-23T04:50:32.275Z,858.68
2017-08-23T04:51:32.260Z,858.70
2017-08-23T04:52:32.349Z,858.71
2017-08-23T04:53:32.242Z,858.66
2017-08-23T04:54:32.233Z,858.68
2017-08-23T04:55:32.221Z,858.70
2017-08-23T04:56:32.211Z,858.68
2017-08-23T04:57:32.202Z,858.70
2017-08-23T04:58:32.292Z,858.69
2017-08-23T04:59:32.183Z,858.71
2017-08-23T05:00:32.174Z,858.69
2017-08-23T05:01:32.164Z,858.70
2017-08-23T05:02:32.160Z,858.67
2017-08-23T05:03:32.144Z,858.73
2017-08-23T05:04:32.234Z,858.74
2017-08-23T05:05:32.125Z,858.75
2017-08-23T05:06:32.121Z,858.74
2017-08-23T05:07:32.107Z,858.71
2017-08-23T05:08:32.096Z,858.71
2017-08-23T05:09:32.087Z,858.71
2017-08-23T05:10:32.177Z,858.74
2017-08-23T05:11:32.175Z,858.73
2017-08-23T05:12:32.058Z,858.73
2017-08-23T05:13:32.048Z,858.73
2017-08-23T05:14:32.039Z,858.68
2017-08-23T05:15:32.030Z,858.70
2017-08-23T05:16:32.126Z,858.73
2017-08-23T05:17:32.011Z,858.68
2017-08-23T05:18:32.001Z,858.68
2017-08-23T05:19:32.094Z,858.71
2017-08-23T05:20:31.988Z,858.68
2017-08-23T05:21:31.973Z,858.68
2017-08-23T05:22:32.064Z,858.71
2017-08-23T05:23:31.954Z,858.65
2017-08-23T05:24:31.946Z,858.66
2017-08-23T05:25:31.934Z,858.64
2017-08-23T05:26:31.926Z,858.64
2017-08-23T05:27:31.918Z,858.65
2017-08-23T05:28:32.008Z,858.68
2017-08-23T05:29:31.902Z,858.66
2017-08-23T05:30:31.888Z,858.70
2017-08-23T05:31:31.878Z,858.75
2017-08-23T05:32:31.870Z,858.78
2017-08-23T05:33:31.865Z,858.79
2017-08-23T05:34:31.950Z,858.77
2017-08-23T05:35:31.841Z,858.78
2017-08-23T05:36:31.831Z,858.76
2017-08-23T05:37:31.822Z,858.74
2017-08-23T05:38:31.819Z,858.75
2017-08-23T05:39:31.804Z,858.73
2017-08-23T05:40:31.795Z,858.72
2017-08-23T05:41:31.885Z,858.75
2017-08-23T05:42:31.776Z,858.78
2017-08-23T05:43:31.769Z,858.70
2017-08-23T05:44:31.759Z,858.74
2017-08-23T05:45:31.757Z,858.71
2017-08-23T05:46:31.748Z,858.68
2017-08-23T05:47:31.835Z,858.72
2017-08-23T05:48:31.725Z,858.68
2017-08-23T05:49:31.717Z,858.75
2017-08-23T05:50:31.710Z,858.72
2017-08-23T05:51:31.701Z,858.77
2017-08-23T05:52:31.693Z,858.83
2017-08-23T05:53:31.785Z,858.86
2017-08-23T05:54:31.684Z,858.86
2017-08-23T05:55:31.671Z,858.88
2017-08-23T05:56:31.666Z,858.84
2017-08-23T05:57:31.655Z,858.84
2017-08-23T05:58:31.653Z,858.84
2017-08-23T05:59:31.739Z,858.82
2017-08-23T06:00:31.636Z,858.87
2017-08-23T06:01:31.625Z,858.85
2017-08-23T06:02:31.622Z,858.89
2017-08-23T06:03:31.610Z,858.91
2017-08-23T06:04:31.602Z,858.88
2017-08-23T06:05:31.702Z,858.92
2017-08-23T06:06:31.589Z,858.93
2017-08-23T06:07:31.582Z,858.96
2017-08-23T06:08:31.574Z,858.96
2017-08-23T06:09:31.575Z,859.02
2017-08-23T06:10:31.562Z,859.02
2017-08-23T06:11:31.555Z,859.02
2017-08-23T06:12:31.647Z,858.97
2017-08-23T06:13:31.541Z,859.00
2017-08-23T06:14:31.534Z,859.00
2017-08-23T06:15:31.534Z,859.00
2017-08-23T06:16:31.522Z,859.01
2017-08-23T06:17:31.515Z,859.00
2017-08-23T06:18:31.609Z,858.96
2017-08-23T06:19:31.509Z,858.97
2017-08-23T06:20:31.496Z,858.97
2017-08-23T06:21:31.496Z,858.97
2017-08-23T06:22:31.484Z,858.97
2017-08-23T06:23:31.485Z,858.93
2017-08-23T06:24:31.472Z,858.87
2017-08-23T06:25:31.466Z,858.84
2017-08-23T06:26:31.566Z,858.83
2017-08-23T06:27:31.555Z,858.83
2017-08-23T06:28:31.458Z,858.87
2017-08-23T06:29:31.442Z,858.86
2017-08-23T06:30:31.437Z,858.87
2017-08-23T06:31:31.433Z,858.84
2017-08-23T06:32:31.424Z,858.78
2017-08-23T06:33:31.521Z,858.85
2017-08-23T06:34:31.414Z,858.86
2017-08-23T06:35:31.415Z,858.87
2017-08-23T06:36:31.404Z,858.84
2017-08-23T06:37:31.404Z,858.89
2017-08-23T06:38:31.393Z,858.84
2017-08-23T06:39:31.491Z,858.89
2017-08-23T06:40:31.386Z,858.92
2017-08-23T06:41:31.382Z,859.01
2017-08-23T06:42:31.381Z,858.99
2017-08-23T06:43:31.378Z,858.99
2017-08-23T06:44:31.370Z,859.00
2017-08-23T06:45:31.466Z,859.01
2017-08-23T06:46:31.363Z,859.09
2017-08-23T06:47:31.366Z,859.17
2017-08-23T06:48:31.360Z,859.52
2017-08-23T06:49:31.358Z,859.81
2017-08-23T06:50:31.361Z,859.94
2017-08-23T06:51:31.466Z,859.80
2017-08-23T06:52:31.359Z,859.52
2017-08-23T06:53:31.366Z,859.57
2017-08-23T06:54:31.367Z,859.60
2017-08-23T06:55:31.373Z,859.60
2017-08-23T06:56:31.376Z,859.65
2017-08-23T06:57:31.475Z,859.80
2017-08-23T06:58:31.380Z,859.88
2017-08-23T06:59:31.386Z,859.81
2017-08-23T07:00:31.391Z,860.00
2017-08-23T07:01:31.404Z,860.06
2017-08-23T07:02:31.405Z,860.22
2017-08-23T07:03:31.513Z,860.58
2017-08-23T07:04:31.421Z,860.65
2017-08-23T07:05:31.436Z,860.75
2017-08-23T07:06:31.444Z,860.93
2017-08-23T07:07:31.448Z,861.38
2017-08-23T07:08:31.459Z,861.63
2017-08-23T07:09:31.568Z,861.78
2017-08-23T07:10:31.482Z,861.91
2017-08-23T07:11:31.491Z,861.97
2017-08-23T07:12:31.501Z,861.71
2017-08-23T07:13:31.511Z,862.06
2017-08-23T07:14:31.529Z,862.19
2017-08-23T07:15:31.640Z,862.28
2017-08-23T07:16:31.546Z,862.38
2017-08-23T07:17:31.573Z,862.34
2017-08-23T07:18:31.569Z,862.38
2017-08-23T07:19:31.681Z,862.32
2017-08-23T07:20:31.591Z,862.36
2017-08-23T07:21:31.703Z,862.28
2017-08-23T07:22:31.615Z,862.28
2017-08-23T07:23:31.628Z,862.29
2017-08-23T07:24:31.643Z,862.32
2017-08-23T07:25:31.649Z,862.19
2017-08-23T07:26:31.660Z,861.78
2017-08-23T07:27:31.778Z,860.98
2017-08-23T07:28:31.681Z,860.18
2017-08-23T07:29:31.694Z,859.52
2017-08-23T07:30:31.701Z,859.30
2017-08-23T07:31:31.717Z,859.23
2017-08-23T07:32:31.725Z,859.23
2017-08-23T07:33:31.828Z,859.26
2017-08-23T07:34:31.735Z,859.23
2017-08-23T07:35:31.744Z,859.18
2017-08-23T07:36:31.750Z,859.22
2017-08-23T07:37:31.759Z,859.22
2017-08-23T07:38:31.768Z,859.26
2017-08-23T07:39:31.878Z,859.23
2017-08-23T07:40:31.776Z,859.22
2017-08-23T07:41:31.781Z,859.23
2017-08-23T07:42:31.788Z,859.23
2017-08-23T07:43:31.791Z,859.20
2017-08-23T07:44:31.795Z,859.20
2017-08-23T07:45:31.799Z,859.16
2017-08-23T07:46:31.805Z,859.20
2017-08-23T07:47:31.807Z,859.23
2017-08-23T07:48:31.818Z,859.21
2017-08-23T07:49:31.919Z,859.18
2017-08-23T07:50:31.817Z,859.22
2017-08-23T07:51:31.820Z,859.22
2017-08-23T07:52:31.820Z,859.15
2017-08-23T07:53:31.825Z,859.16
2017-08-23T07:54:31.825Z,859.15
2017-08-23T07:55:31.927Z,859.13
2017-08-23T07:56:31.829Z,859.07
2017-08-23T07:57:31.831Z,859.10
2017-08-23T07:58:31.831Z,859.08
2017-08-23T07:59:31.832Z,859.05
2017-08-23T08:00:31.834Z,859.06
2017-08-23T08:01:31.939Z,859.09
2017-08-23T08:02:31.835Z,859.06
2017-08-23T08:03:31.837Z,859.07
2017-08-23T08:04:31.838Z,859.06
2017-08-23T08:05:31.838Z,859.04
2017-08-23T08:06:31.838Z,859.04
2017-08-23T08:07:31.940Z,859.03
2017-08-23T08:08:31.838Z,859.01
2017-08-23T08:09:31.843Z,858.99
2017-08-23T08:10:31.838Z,859.01
2017-08-23T08:11:31.844Z,859.06
2017-08-23T08:12:31.837Z,859.05
2017-08-23T08:13:31.942Z,859.05
2017-08-23T08:14:31.843Z,859.10
2017-08-23T08:15:31.840Z,859.06
2017-08-23T08:16:31.837Z,859.06
2017-08-23T08:17:31.837Z,859.08
2017-08-23T08:18:31.836Z,859.07
2017-08-23T08:19:31.842Z,859.03
2017-08-23T08:20:31.841Z,859.05
2017-08-23T08:21:31.836Z,859.08
2017-08-23T08:22:31.840Z,859.13
2017-08-23T08:23:31.840Z,859.07
2017-08-23T08:24:31.933Z,859.04
2017-08-23T08:25:31.839Z,859.06
2017-08-23T08:26:31.832Z,859.01
2017-08-23T08:27:31.832Z,859.08
2017-08-23T08:28:31.830Z,859.11
2017-08-23T08:29:31.831Z,859.08
2017-08-23T08:30:31.828Z,859.06
2017-08-23T08:31:31.834Z,859.07
2017-08-23T08:32:31.832Z,859.05
2017-08-23T08:33:31.825Z,859.11
2017-08-23T08:34:31.926Z,859.09
2017-08-23T08:35:31.823Z,859.19
2017-08-23T08:36:31.827Z,859.15
2017-08-23T08:37:31.820Z,859.09
2017-08-23T08:38:31.820Z,859.11
2017-08-23T08:39:31.818Z,859.12
2017-08-23T08:40:31.922Z,859.09
2017-08-23T08:41:31.821Z,859.08
2017-08-23T08:42:31.815Z,859.06
2017-08-23T08:43:31.814Z,859.11
2017-08-23T08:44:31.811Z,859.12
2017-08-23T08:45:31.810Z,859.11
2017-08-23T08:46:31.915Z,859.25
2017-08-23T08:47:31.807Z,859.21
2017-08-23T08:48:31.806Z,859.26
2017-08-23T08:49:31.810Z,859.22
2017-08-23T08:50:31.810Z,859.24
2017-08-23T08:51:31.802Z,859.27
2017-08-23T08:52:31.907Z,859.22
2017-08-23T08:53:31.800Z,859.15
2017-08-23T08:54:31.801Z,859.20
2017-08-23T08:55:31.904Z,859.17
2017-08-23T08:56:31.795Z,859.15
2017-08-23T08:57:31.794Z,859.12
2017-08-23T08:58:31.793Z,859.18
2017-08-23T08:59:31.897Z,859.22
2017-08-23T09:00:31.796Z,859.22
2017-08-23T09:01:31.788Z,859.19
2017-08-23T09:02:31.788Z,859.11
2017-08-23T09:03:31.788Z,859.21
2017-08-23T09:04:31.789Z,859.23
2017-08-23T09:05:31.883Z,859.21
2017-08-23T09:06:31.782Z,859.29
2017-08-23T09:07:31.887Z,859.31
2017-08-23T09:08:31.785Z,859.27
2017-08-23T09:09:31.782Z,859.29
2017-08-23T09:10:31.777Z,859.31
2017-08-23T09:11:31.778Z,859.25
2017-08-23T09:12:31.774Z,859.33
2017-08-23T09:13:31.880Z,859.22
2017-08-23T09:14:31.773Z,859.17
2017-08-23T09:15:31.774Z,859.18
2017-08-23T09:16:31.793Z,859.33
2017-08-23T09:17:31.770Z,859.28
2017-08-23T09:18:31.770Z,859.23
2017-08-23T09:19:31.869Z,859.20
2017-08-23T09:20:31.772Z,859.30
2017-08-23T09:21:31.772Z,859.29
2017-08-23T09:22:31.767Z,859.36
2017-08-23T09:23:31.765Z,859.39
2017-08-23T09:24:31.769Z,859.35
2017-08-23T09:25:31.763Z,859.29
2017-08-23T09:26:31.763Z,859.20
2017-08-23T09:27:31.762Z,859.25
2017-08-23T09:28:31.762Z,859.29
2017-08-23T09:29:31.861Z,859.18
2017-08-23T09:30:31.760Z,859.15
2017-08-23T09:31:31.761Z,859.21
2017-08-23T09:32:31.764Z,859.22
2017-08-23T09:33:31.759Z,859.25
2017-08-23T09:34:31.760Z,859.22
2017-08-23T09:35:31.864Z,859.19
2017-08-23T09:36:31.762Z,859.24
2017-08-23T09:37:31.761Z,859.25
2017-08-23T09:38:31.758Z,859.30
2017-08-23T09:39:31.762Z,859.29
2017-08-23T09:40:31.757Z,859.30
2017-08-23T09:41:31.856Z,859.25
2017-08-23T09:42:31.761Z,859.22
2017-08-23T09:43:31.763Z,859.16
2017-08-23T09:44:31.760Z,859.10
2017-08-23T09:45:31.854Z,859.10
2017-08-23T09:46:31.754Z,859.09
2017-08-23T09:47:31.857Z,859.10
2017-08-23T09:48:31.754Z,859.04
2017-08-23T09:49:31.753Z,859.06
2017-08-23T09:50:31.754Z,859.09
2017-08-23T09:51:31.753Z,859.08
2017-08-23T09:52:31.752Z,859.05
2017-08-23T09:53:31.852Z,859.05
2017-08-23T09:54:31.852Z,859.01
2017-08-23T09:55:31.751Z,859.01
2017-08-23T09:56:31.756Z,859.03
2017-08-23T09:57:31.756Z,859.02
2017-08-23T09:58:31.756Z,859.00
2017-08-23T09:59:31.757Z,858.99
2017-08-23T10:00:31.855Z,859.07
2017-08-23T10:01:31.750Z,859.00
2017-08-23T10:02:31.753Z,859.02
2017-08-23T10:03:31.750Z,859.07
2017-08-23T10:04:31.749Z,859.06
2017-08-23T10:05:31.749Z,859.05
2017-08-23T10:06:31.754Z,859.07
2017-08-23T10:07:31.749Z,859.07
2017-08-23T10:08:31.748Z,859.05
2017-08-23T10:09:31.747Z,859.04
2017-08-23T10:10:31.747Z,859.06
2017-08-23T10:11:31.847Z,859.08
2017-08-23T10:12:31.746Z,859.07
2017-08-23T10:13:31.747Z,859.03
2017-08-23T10:14:31.747Z,858.99
2017-08-23T10:15:31.749Z,858.96
2017-08-23T10:16:31.744Z,859.03
2017-08-23T10:17:31.849Z,859.04
2017-08-23T10:18:31.743Z,859.10
2017-08-23T10:19:31.744Z,859.21
2017-08-23T10:20:31.741Z,859.18
2017-08-23T10:21:31.742Z,859.15
2017-08-23T10:22:31.740Z,859.12
2017-08-23T10:23:31.840Z,859.13
2017-08-23T10:24:31.745Z,859.10
2017-08-23T10:25:31.739Z,859.14
2017-08-23T10:26:31.739Z,859.11
2017-08-23T10:27:31.739Z,859.07
2017-08-23T10:28:31.738Z,859.03
2017-08-23T10:29:31.745Z,859.02
2017-08-23T10:30:31.738Z,859.05
2017-08-23T10:31:31.845Z,859.05
2017-08-23T10:32:31.843Z,858.99
2017-08-23T10:33:31.743Z,859.01
2017-08-23T10:34:31.736Z,858.94
2017-08-23T10:35:31.737Z,858.99
2017-08-23T10:36:31.735Z,858.97
2017-08-23T10:37:31.836Z,858.96
2017-08-23T10:38:32.042Z,859.00
2017-08-23T10:39:31.741Z,858.97
2017-08-23T10:40:31.735Z,858.93
2017-08-23T10:41:31.734Z,858.91
2017-08-23T10:42:31.741Z,858.97
2017-08-23T10:43:31.834Z,858.98
2017-08-23T10:44:31.733Z,858.96
2017-08-23T10:45:31.733Z,858.98
2017-08-23T10:46:31.733Z,858.95
2017-08-23T10:47:31.738Z,858.93
2017-08-23T10:48:31.732Z,858.95
2017-08-23T10:49:31.831Z,859.01
2017-08-23T10:50:31.731Z,859.04
2017-08-23T10:51:31.730Z,859.00
2017-08-23T10:52:31.729Z,859.09
2017-08-23T10:53:31.729Z,859.05
2017-08-23T10:54:31.730Z,859.04
2017-08-23T10:55:31.985Z,859.08
2017-08-23T10:56:31.748Z,858.99
2017-08-23T10:57:31.733Z,859.03
2017-08-23T10:58:31.728Z,858.99
2017-08-23T10:59:31.730Z,858.98
2017-08-23T11:00:31.727Z,858.98
2017-08-23T11:01:31.834Z,859.04
2017-08-23T11:02:31.733Z,858.97
2017-08-23T11:03:31.727Z,859.03
2017-08-23T11:04:31.733Z,859.05
2017-08-23T11:05:31.726Z,859.07
2017-08-23T11:06:31.726Z,859.08
2017-08-23T11:07:31.733Z,859.05
2017-08-23T11:08:31.726Z,859.06
2017-08-23T11:09:31.727Z,859.04
2017-08-23T11:10:31.726Z,859.08
2017-08-23T11:11:31.727Z,859.04
2017-08-23T11:12:31.726Z,858.97
2017-08-23T11:13:31.981Z,858.98
2017-08-23T11:14:31.726Z,858.95
2017-08-23T11:15:31.732Z,859.02
2017-08-23T11:16:31.725Z,859.01
2017-08-23T11:17:31.731Z,858.99
2017-08-23T11:18:31.725Z,858.99
2017-08-23T11:19:31.981Z,858.99
2017-08-23T11:20:31.724Z,859.02
2017-08-23T11:21:32.027Z,859.08
2017-08-23T11:22:31.724Z,859.01
2017-08-23T11:23:31.724Z,859.01
2017-08-23T11:24:31.724Z,858.98
2017-08-23T11:25:31.825Z,859.05
2017-08-23T11:26:31.723Z,859.04
2017-08-23T11:27:31.723Z,859.02
2017-08-23T11:28:31.722Z,858.99
2017-08-23T11:29:31.723Z,859.00
2017-08-23T11:30:32.023Z,859.02
2017-08-23T11:31:31.829Z,859.02
2017-08-23T11:32:31.722Z,858.99
2017-08-23T11:33:31.722Z,858.97
2017-08-23T11:34:31.723Z,859.01
2017-08-23T11:35:31.723Z,858.98
2017-08-23T11:36:31.729Z,858.99
2017-08-23T11:37:31.729Z,858.97
2017-08-23T11:38:31.824Z,859.01
2017-08-23T11:39:32.025Z,858.96
2017-08-23T11:40:31.731Z,858.98
2017-08-23T11:41:31.724Z,858.96
2017-08-23T11:42:31.725Z,858.93
2017-08-23T11:43:31.726Z,858.90
2017-08-23T11:44:31.832Z,858.89
2017-08-23T11:45:31.727Z,858.85
2017-08-23T11:46:31.734Z,858.89
2017-08-23T11:47:31.728Z,858.88
2017-08-23T11:48:31.729Z,858.93
2017-08-23T11:49:31.731Z,858.94
2017-08-23T11:50:32.039Z,858.92
2017-08-23T11:51:31.731Z,858.91
2017-08-23T11:52:31.732Z,858.93
2017-08-23T11:53:31.745Z,858.88
2017-08-23T11:54:31.740Z,858.88
2017-08-23T11:55:31.735Z,858.86
2017-08-23T11:56:31.841Z,858.89
2017-08-23T11:57:31.736Z,858.94
2017-08-23T11:58:31.767Z,858.94
2017-08-23T11:59:31.737Z,858.88
2017-08-23T12:00:31.741Z,858.90
2017-08-23T12:01:31.738Z,858.91
2017-08-23T12:02:31.840Z,858.96
2017-08-23T12:03:31.740Z,858.91
2017-08-23T12:04:31.741Z,858.92
2017-08-23T12:05:31.742Z,858.96
2017-08-23T12:06:31.742Z,858.91
2017-08-23T12:07:31.818Z,858.90
2017-08-23T12:08:31.850Z,858.93
2017-08-23T12:09:31.745Z,858.96
2017-08-23T12:10:31.744Z,858.89
2017-08-23T12:11:31.746Z,858.99
2017-08-23T12:12:31.746Z,858.91
2017-08-23T12:13:31.747Z,858.92
2017-08-23T12:14:31.854Z,858.99
2017-08-23T12:15:31.749Z,858.99
2017-08-23T12:16:31.749Z,858.94
2017-08-23T12:17:31.752Z,858.90
2017-08-23T12:18:31.752Z,858.89
2017-08-23T12:19:31.755Z,858.90
2017-08-23T12:20:31.855Z,858.92
2017-08-23T12:21:31.762Z,858.93
2017-08-23T12:22:31.767Z,858.90
2017-08-23T12:23:31.758Z,858.91
2017-08-23T12:24:31.761Z,858.92
2017-08-23T12:25:31.761Z,858.93
2017-08-23T12:26:31.864Z,858.86
2017-08-23T12:27:31.770Z,858.91
2017-08-23T12:28:31.771Z,858.89